Time;durP1;ratioP1;P1;durP2;ratioP2;P2;SDS_P1;SDS_P2;PMS_P1;PMS_P2;Temp;Humidity;BMP_temperature;BMP_pressure;BME280_temperature;BME280_humidity;BME280_pressure;Samples;Min_cycle;Max_cycle;Signal;HPM_P1;HPM_P2
2022/06/19 00:02:15;;;;;;;2.58;1.88;;;;;;;11.10;100.00;91374.03;5031090;28;20030;-75
2022/06/19 00:04:42;;;;;;;6.80;3.17;;;;;;;11.16;100.00;91390.69;5030789;28;20064;-75
2022/06/19 00:07:09;;;;;;;2.80;2.25;;;;;;;11.06;100.00;91397.03;5030709;28;20022;-74
2022/06/19 00:09:35;;;;;;;2.60;2.17;;;;;;;10.95;100.00;91390.34;5030631;28;20117;-74
2022/06/19 00:12:01;;;;;;;3.53;2.47;;;;;;;10.94;100.00;91386.13;5030767;28;20171;-74
2022/06/19 00:14:27;;;;;;;4.82;2.63;;;;;;;10.88;100.00;91387.28;5030615;28;20020;-74
2022/06/19 00:16:52;;;;;;;4.18;2.42;;;;;;;10.86;100.00;91391.34;5032860;28;20515;-74
2022/06/19 00:19:18;;;;;;;3.03;2.13;;;;;;;10.80;100.00;91386.13;5034601;28;20032;-74
2022/06/19 00:21:44;;;;;;;5.53;2.28;;;;;;;10.89;100.00;91388.88;5034509;28;20055;-74
2022/06/19 00:24:10;;;;;;;2.70;2.40;;;;;;;10.95;100.00;91403.66;5034484;28;20479;-75
2022/06/19 00:26:35;;;;;;;4.60;2.53;;;;;;;10.94;100.00;91394.09;5034556;28;20088;-74
2022/06/19 00:29:01;;;;;;;3.08;2.28;;;;;;;10.92;100.00;91396.28;5034419;28;20036;-74
2022/06/19 00:31:26;;;;;;;3.30;2.20;;;;;;;10.96;100.00;91383.94;5034464;28;20029;-74
2022/06/19 00:33:53;;;;;;;3.53;2.63;;;;;;;10.90;100.00;91395.00;5034291;28;20503;-74
2022/06/19 00:36:21;;;;;;;3.22;2.17;;;;;;;10.86;100.00;91383.34;5034343;28;20036;-75
2022/06/19 00:38:47;;;;;;;2.83;2.28;;;;;;;10.80;100.00;91385.34;5034208;28;20022;-74
2022/06/19 00:41:13;;;;;;;3.50;2.53;;;;;;;10.77;100.00;91388.59;5034306;28;20037;-74
2022/06/19 00:43:53;;;;;;;4.22;2.47;;;;;;;10.71;100.00;91392.44;5034125;28;20041;-74
2022/06/19 00:46:47;;;;;;;2.42;2.22;;;;;;;10.60;100.00;91391.09;5034156;28;20029;-74
2022/06/19 00:49:17;;;;;;;4.13;2.58;;;;;;;10.47;100.00;91390.00;5016270;28;20025;-74
2022/06/19 00:51:44;;;;;;;3.13;2.70;;;;;;;10.37;100.00;91385.66;5034118;28;20503;-73
2022/06/19 00:54:13;;;;;;;3.33;2.90;;;;;;;10.37;100.00;91393.63;5034154;28;20038;-73
2022/06/19 00:56:39;;;;;;;3.95;3.03;;;;;;;10.37;100.00;91393.63;5033780;28;20116;-74
2022/06/19 00:59:06;;;;;;;3.15;2.50;;;;;;;10.34;100.00;91399.56;5033913;28;20104;-74
2022/06/19 01:01:32;;;;;;;3.15;2.83;;;;;;;10.31;100.00;91404.69;5033977;28;20544;-74
2022/06/19 01:04:11;;;;;;;4.95;3.17;;;;;;;10.32;100.00;91406.25;5033868;28;20025;-74
2022/06/19 01:06:36;;;;;;;5.00;3.10;;;;;;;10.37;100.00;91390.19;5033729;28;20083;-74
2022/06/19 01:09:03;;;;;;;4.03;2.25;;;;;;;10.32;100.00;91395.63;5033593;28;20470;-73
2022/06/19 01:11:33;;;;;;;3.65;2.53;;;;;;;10.36;100.00;91396.59;5033770;28;20503;-73
2022/06/19 01:14:01;;;;;;;2.97;2.35;;;;;;;10.42;100.00;91403.41;5033654;28;20479;-75
2022/06/19 01:16:26;;;;;;;3.30;2.25;;;;;;;10.33;100.00;91399.84;5033531;28;20079;-72
2022/06/19 01:18:52;;;;;;;3.38;2.63;;;;;;;10.33;100.00;91399.84;5033580;28;20033;-74
2022/06/19 01:21:31;;;;;;;3.00;2.50;;;;;;;10.38;100.00;91405.84;5033540;28;20077;-74
2022/06/19 01:24:18;;;;;;;2.80;2.33;;;;;;;10.32;100.00;91396.41;5033500;28;20033;-74
2022/06/19 01:26:47;;;;;;;5.80;2.85;;;;;;;10.25;100.00;91401.31;5033289;28;20083;-74
2022/06/19 01:29:14;;;;;;;3.67;2.10;;;;;;;10.22;100.00;91390.47;5032947;28;20049;-75
2022/06/19 01:31:52;;;;;;;2.17;1.98;;;;;;;10.25;100.00;91398.66;5033413;28;20422;-73
2022/06/19 01:34:32;;;;;;;2.38;2.10;;;;;;;10.31;100.00;91394.84;5033252;28;20030;-74
2022/06/19 01:37:04;;;;;;;3.15;2.47;;;;;;;10.32;100.00;91395.63;5033126;28;20466;-74
2022/06/19 01:39:34;;;;;;;2.85;2.53;;;;;;;10.35;100.00;91395.03;5033137;28;20037;-74
2022/06/19 01:42:01;;;;;;;2.40;2.10;;;;;;;10.34;100.00;91391.56;5033175;28;20030;-73
2022/06/19 01:44:27;;;;;;;2.42;2.22;;;;;;;10.28;100.00;91390.09;5032993;28;20484;-76
2022/06/19 01:46:53;;;;;;;2.63;2.42;;;;;;;10.34;100.00;91396.91;5032912;28;20030;-75
2022/06/19 01:49:19;;;;;;;5.15;2.33;;;;;;;10.29;100.00;91391.69;5032985;28;20091;-75
2022/06/19 01:51:44;;;;;;;2.45;2.20;;;;;;;10.34;100.00;91396.91;5032906;28;20033;-74
2022/06/19 01:54:21;;;;;;;3.30;2.45;;;;;;;10.30;100.00;91385.28;5032842;28;20116;-74
2022/06/19 01:56:46;;;;;;;2.95;2.10;;;;;;;10.31;100.00;91388.72;5032685;28;20026;-73
2022/06/19 01:59:12;;;;;;;2.40;2.20;;;;;;;10.35;100.00;91387.84;5032742;28;20025;-74
2022/06/19 02:01:39;;;;;;;3.45;2.92;;;;;;;10.31;100.00;91389.50;5032745;28;20029;-74
2022/06/19 02:04:07;;;;;;;3.53;2.38;;;;;;;10.34;100.00;91388.13;5032688;28;20033;-74
2022/06/19 02:06:42;;;;;;;3.75;2.45;;;;;;;10.32;100.00;91396.41;5032560;28;20029;-74
2022/06/19 02:09:08;;;;;;;3.40;2.60;;;;;;;10.32;100.00;91396.41;5027712;28;20065;-74
2022/06/19 02:11:34;;;;;;;2.13;1.90;;;;;;;10.28;100.00;91384.78;5012675;28;20053;-74
2022/06/19 02:14:02;;;;;;;2.75;2.28;;;;;;;10.39;100.00;91390.69;5012569;28;20037;-74
2022/06/19 02:16:28;;;;;;;2.38;2.00;;;;;;;10.44;100.00;91387.94;4994980;28;20037;-75
2022/06/19 02:18:54;;;;;;;3.72;2.30;;;;;;;10.42;100.00;91385.59;5012564;28;20038;-74
2022/06/19 02:21:32;;;;;;;2.63;2.08;;;;;;;10.38;100.00;91383.78;5012565;28;20034;-74
2022/06/19 02:23:58;;;;;;;2.58;2.20;;;;;;;10.34;100.00;91388.13;5012407;28;20121;-74
2022/06/19 02:26:23;;;;;;;2.75;2.28;;;;;;;10.32;100.00;91393.75;5012328;28;20108;-75
2022/06/19 02:28:50;;;;;;;8.70;4.40;;;;;;;10.31;100.00;91400.16;5012390;28;20044;-74
2022/06/19 02:31:18;;;;;;;3.20;2.20;;;;;;;10.32;100.00;91391.09;5012409;28;20022;-74
2022/06/19 02:33:51;;;;;;;2.17;1.98;;;;;;;10.30;100.00;91398.56;5012594;28;20057;-75
2022/06/19 02:36:47;;;;;;;5.65;2.08;;;;;;;10.29;100.00;91402.31;5012077;28;20026;-74
2022/06/19 02:39:36;;;;;;;2.28;2.08;;;;;;;10.21;100.00;91397.66;5011263;28;20025;-74
2022/06/19 02:42:20;;;;;;;2.30;2.05;;;;;;;10.11;100.00;91411.13;5012201;28;20101;-74
2022/06/19 02:44:46;;;;;;;;;;;;;;;10.10;100.00;91414.88;5012508;28;20424;-74
2022/06/19 02:47:11;;;;;;;1.77;1.67;;;;;;;9.92;100.00;91408.53;5011965;28;20387;-74
2022/06/19 02:49:37;;;;;;;2.55;2.22;;;;;;;9.89;100.00;91404.59;5012129;28;20025;-73
2022/06/19 02:52:05;;;;;;;3.35;2.22;;;;;;;9.95;100.00;91407.97;5012042;28;20033;-74
2022/06/19 02:54:31;;;;;;;2.17;1.98;;;;;;;9.93;100.00;91412.75;5012150;28;20084;-75
2022/06/19 02:56:57;;;;;;;2.70;2.38;;;;;;;9.91;100.00;91404.28;5011882;28;20526;-74
2022/06/19 02:59:23;;;;;;;3.92;2.22;;;;;;;9.94;100.00;91403.72;5011931;28;20053;-75
2022/06/19 03:01:49;;;;;;;2.92;2.38;;;;;;;9.98;100.00;91404.72;5011903;28;20109;-75
2022/06/19 03:04:20;;;;;;;2.10;1.83;;;;;;;9.95;100.00;91401.84;5011738;28;20033;-74
2022/06/19 03:06:46;;;;;;;3.42;1.98;;;;;;;9.96;100.00;91412.19;5011693;28;20488;-76
2022/06/19 03:09:12;;;;;;;2.03;1.83;;;;;;;9.99;100.00;91411.59;5016592;28;20096;-75
2022/06/19 03:11:38;;;;;;;4.10;2.17;;;;;;;9.99;100.00;91410.81;5031507;28;20029;-75
2022/06/19 03:14:04;;;;;;;1.80;1.70;;;;;;;9.99;100.00;91408.16;5031389;28;20120;-75
2022/06/19 03:16:29;;;;;;;5.22;2.70;;;;;;;10.02;100.00;91405.69;5031316;28;20101;-75
2022/06/19 03:18:54;;;;;;;2.28;2.08;;;;;;;10.02;100.00;91407.56;5031230;28;20029;-76
2022/06/19 03:21:20;;;;;;;2.08;1.98;;;;;;;10.03;100.00;91414.47;5031421;28;20511;-75
2022/06/19 03:23:45;;;;;;;5.40;2.90;;;;;;;10.01;100.00;91403.34;5031423;28;20468;-76
2022/06/19 03:26:11;;;;;;;2.90;2.58;;;;;;;9.97;100.00;91421.75;5031326;28;20017;-75
2022/06/19 03:28:36;;;;;;;2.95;2.30;;;;;;;10.04;100.00;91421.34;5031340;28;20491;-76
2022/06/19 03:31:02;;;;;;;2.20;1.92;;;;;;;10.10;100.00;91422.84;5031409;28;20451;-76
2022/06/19 03:33:28;;;;;;;2.28;2.08;;;;;;;10.14;100.00;91421.19;5031295;28;20483;-76
2022/06/19 03:35:53;;;;;;;2.78;2.08;;;;;;;10.23;100.00;91418.66;5031199;28;20029;-76
2022/06/19 03:38:20;;;;;;;3.10;2.63;;;;;;;10.25;100.00;91419.91;5031173;28;20116;-76
2022/06/19 03:40:45;;;;;;;3.00;2.15;;;;;;;10.15;100.00;91407.59;5031184;28;20041;-75
2022/06/19 03:43:11;;;;;;;6.88;3.90;;;;;;;10.27;100.00;91427.63;5031437;28;20092;-75
2022/06/19 03:45:36;;;;;;;3.17;2.50;;;;;;;10.43;100.00;91418.28;5031146;28;20030;-74
2022/06/19 03:48:02;;;;;;;2.38;1.80;;;;;;;10.53;100.00;91427.94;5031075;28;20487;-75
2022/06/19 03:50:28;;;;;;;2.33;1.75;;;;;;;10.65;100.00;91421.03;5031500;28;20056;-75
2022/06/19 03:52:54;;;;;;;4.47;2.05;;;;;;;10.67;100.00;91415.41;5035258;28;20053;-74
2022/06/19 03:55:19;;;;;;;3.80;2.30;;;;;;;10.84;100.00;91428.91;5035145;28;20021;-74
2022/06/19 03:57:45;;;;;;;3.17;2.10;;;;;;;10.97;100.00;91430.75;5035047;28;20415;-74
2022/06/19 04:00:14;;;;;;;2.88;2.00;;;;;;;11.05;100.00;91424.75;5035162;28;20507;-74
2022/06/19 04:02:40;;;;;;;2.47;2.08;;;;;;;11.08;100.00;91424.16;5034975;28;20041;-75
2022/06/19 04:05:06;;;;;;;2.25;1.98;;;;;;;11.18;100.00;91427.66;5035088;28;20032;-75
2022/06/19 04:07:31;;;;;;;2.70;2.10;;;;;;;11.26;100.00;91424.31;5034973;28;20033;-75
2022/06/19 04:10:00;;;;;;;2.17;1.98;;;;;;;11.31;100.00;91421.53;5034856;28;20553;-75
2022/06/19 04:12:26;;;;;;;2.28;1.95;;;;;;;11.20;100.00;91409.50;5034944;28;20095;-75
2022/06/19 04:14:52;;;;;;;2.42;2.03;;;;;;;11.37;100.00;91423.78;5034826;28;20495;-75
2022/06/19 04:17:17;;;;;;;2.58;2.17;;;;;;;11.41;100.00;91426.63;5034785;28;20018;-74
2022/06/19 04:19:43;;;;;;;1.85;1.75;;;;;;;11.56;100.00;91418.28;5034842;28;20406;-74
2022/06/19 04:22:08;;;;;;;2.15;1.88;;;;;;;11.58;100.00;91426.78;5034757;28;20503;-74
2022/06/19 04:24:34;;;;;;;2.30;2.10;;;;;;;11.80;100.00;91418.00;5034756;28;20040;-75
2022/06/19 04:27:04;;;;;;;2.83;2.13;;;;;;;11.96;100.00;91415.75;5034689;28;20164;-76
2022/06/19 04:29:29;;;;;;;2.38;2.17;;;;;;;12.24;100.00;91411.06;5034657;28;20502;-76
2022/06/19 04:31:56;;;;;;;18.13;8.57;;;;;;;12.40;100.00;91422.91;5034600;28;20029;-75
2022/06/19 04:34:22;;;;;;;2.95;2.00;;;;;;;12.55;100.00;91411.03;5034519;28;20043;-75
2022/06/19 04:36:47;;;;;;;2.28;2.00;;;;;;;12.58;100.00;91421.09;5034326;28;20108;-74
2022/06/19 04:39:13;;;;;;;3.67;2.42;;;;;;;12.70;100.00;91415.97;5034453;28;20108;-74
2022/06/19 04:41:43;;;;;;;2.58;2.30;;;;;;;12.80;100.00;91412.25;5034473;28;20018;-75
2022/06/19 04:44:14;;;;;;;2.33;1.95;;;;;;;12.86;100.00;91411.00;5034568;28;20083;-74
2022/06/19 04:46:40;;;;;;;2.50;2.30;;;;;;;12.83;100.00;91401.72;5034005;28;20033;-75
2022/06/19 04:49:05;;;;;;;3.78;2.20;;;;;;;12.84;100.00;91397.16;5034238;28;20036;-74
2022/06/19 04:51:31;;;;;;;2.80;2.20;;;;;;;12.84;100.00;91403.28;5034229;28;20479;-74
2022/06/19 04:53:56;;;;;;;2.20;2.00;;;;;;;12.80;100.00;91413.03;5034224;28;20037;-74
2022/06/19 04:56:23;;;;;;;2.70;2.45;;;;;;;12.83;100.00;91412.41;5033904;28;20049;-74
2022/06/19 04:58:50;;;;;;;5.47;2.40;;;;;;;13.00;100.00;91405.53;5016169;28;20030;-74
2022/06/19 05:01:27;;;;;;;3.67;2.42;;;;;;;13.09;100.00;91412.44;5033974;28;20041;-74
2022/06/19 05:03:55;;;;;;;4.45;2.15;;;;;;;13.23;100.00;91409.69;5032885;28;20061;-73
2022/06/19 05:06:22;;;;;;;3.38;2.35;;;;;;;13.34;100.00;91413.63;5034014;28;20021;-74
2022/06/19 05:08:47;;;;;;;3.00;2.70;;;;;;;13.55;100.00;91405.00;5031902;28;20032;-74
2022/06/19 05:11:13;;;;;;;2.38;2.00;;;;;;;13.73;100.00;91417.28;5013750;28;20120;-73
2022/06/19 05:13:39;;;;;;;2.95;2.17;;;;;;;13.82;100.00;91402.00;5013859;28;20415;-73
2022/06/19 05:16:12;;;;;;;2.97;2.05;;;;;;;14.10;100.00;91415.81;5013522;28;20044;-75
2022/06/19 05:18:38;;;;;;;2.33;2.13;;;;;;;14.22;100.00;91417.84;5013656;28;20104;-76
2022/06/19 05:21:04;;;;;;;2.67;2.10;;;;;;;14.38;100.00;91422.38;4994799;28;20039;-69
2022/06/19 05:23:32;;;;;;;3.30;2.13;;;;;;;14.39;100.00;91413.22;4993689;28;20059;-69
2022/06/19 05:26:07;;;;;;;3.03;2.00;;;;;;;14.56;100.00;91417.00;4993529;28;20085;-69
2022/06/19 05:28:34;;;;;;;2.17;1.98;;;;;;;14.70;100.00;91414.13;4993242;28;20037;-69
2022/06/19 05:31:02;;;;;;;3.72;2.33;;;;;;;14.86;100.00;91425.88;4993542;28;20034;-69
2022/06/19 05:33:30;;;;;;;4.28;3.00;;;;;;;15.01;100.00;91419.97;4992709;28;20493;-69
2022/06/19 05:35:57;;;;;;;2.47;1.92;;;;;;;15.22;100.00;91418.09;5008163;28;20405;-69
2022/06/19 05:38:23;;;;;;;2.10;1.90;;;;;;;15.55;100.00;91420.09;5008032;28;20472;-70
2022/06/19 05:40:54;;;;;;;6.07;2.13;;;;;;;15.77;100.00;91425.16;4993103;28;20062;-69
2022/06/19 05:43:20;;;;;;;2.58;1.90;;;;;;;15.92;100.00;91428.38;5122575;23;20411;-64
2022/06/19 05:45:58;;;;;;;4.57;2.40;;;;;;;16.13;100.00;91429.16;5052804;28;20049;-65
2022/06/19 05:48:25;;;;;;;3.45;2.50;;;;;;;16.17;100.00;91430.06;5052326;28;20025;-65
2022/06/19 05:51:18;;;;;;;3.10;2.50;;;;;;;18.47;97.48;91427.66;5052630;28;20040;-65
2022/06/19 05:53:47;;;;;;;3.08;2.22;;;;;;;20.85;73.16;91421.50;5050062;28;20072;-65
2022/06/19 05:56:13;;;;;;;2.45;2.20;;;;;;;24.09;59.62;91422.75;5052450;28;20025;-65
2022/06/19 05:58:39;;;;;;;3.58;2.28;;;;;;;25.71;53.16;91428.38;5052419;28;20382;-65
2022/06/19 06:01:06;;;;;;;2.70;2.28;;;;;;;27.40;50.42;91432.97;5052644;28;20108;-65
2022/06/19 06:03:32;;;;;;;5.22;3.03;;;;;;;27.26;48.38;91427.59;5052307;28;20032;-66
2022/06/19 06:06:02;;;;;;;2.45;2.13;;;;;;;27.28;48.50;91430.69;5052719;28;20108;-65
2022/06/19 06:08:29;;;;;;;3.00;2.53;;;;;;;28.05;46.69;91434.06;5052352;28;20553;-65
2022/06/19 06:10:55;;;;;;;2.33;2.13;;;;;;;28.05;46.06;91428.59;5052306;28;20025;-66
2022/06/19 06:13:20;;;;;;;3.05;2.58;;;;;;;30.15;43.07;91433.47;5052052;28;20029;-65
2022/06/19 06:15:47;;;;;;;3.50;3.20;;;;;;;28.26;46.47;91433.91;5052074;28;20017;-65
2022/06/19 06:18:13;;;;;;;4.78;3.20;;;;;;;28.71;46.33;91420.13;5051798;28;20934;-65
2022/06/19 06:20:39;;;;;;;4.82;2.90;;;;;;;30.86;44.15;91424.72;5052266;28;20029;-65
2022/06/19 06:23:05;;;;;;;5.97;3.17;;;;;;;31.54;41.53;91429.63;5052190;28;20402;-66
2022/06/19 06:25:30;;;;;;;3.30;2.63;;;;;;;31.28;41.83;91434.13;5052394;28;20041;-66
2022/06/19 06:27:55;;;;;;;8.07;2.65;;;;;;;29.74;44.65;91437.22;5052413;28;20453;-65
2022/06/19 06:30:21;;;;;;;4.13;2.25;;;;;;;30.34;43.85;91439.00;5051913;28;20556;-65
2022/06/19 06:32:47;;;;;;;4.85;3.00;;;;;;;30.73;43.40;91436.78;5051682;28;20025;-66
2022/06/19 06:35:12;;;;;;;3.55;2.80;;;;;;;29.21;44.97;91436.00;5051850;28;20029;-65
2022/06/19 06:37:38;;;;;;;5.43;2.85;;;;;;;29.75;45.70;91438.78;5051929;28;20071;-66
2022/06/19 06:40:06;;;;;;;4.88;3.33;;;;;;;29.78;46.95;91438.72;5051828;28;20044;-66
2022/06/19 06:42:32;;;;;;;3.35;3.05;;;;;;;28.55;48.59;91428.13;5051367;28;20037;-65
2022/06/19 06:44:58;;;;;;;5.10;3.42;;;;;;;28.44;47.82;91427.47;5051746;28;20044;-65
2022/06/19 06:47:24;;;;;;;3.25;2.95;;;;;;;29.18;46.53;91420.34;5051692;28;20478;-66
2022/06/19 06:49:49;;;;;;;2.83;2.45;;;;;;;30.48;43.72;91415.25;5050861;28;20403;-66
2022/06/19 06:52:14;;;;;;;1.88;1.77;;;;;;;33.94;38.74;91424.94;5051371;28;20123;-65
2022/06/19 06:54:40;;;;;;;2.42;2.22;;;;;;;33.83;38.17;91422.47;5051439;28;20155;-64
2022/06/19 06:57:06;;;;;;;2.30;2.10;;;;;;;32.25;39.03;91427.22;5051345;28;20521;-64
2022/06/19 06:59:33;;;;;;;3.13;1.80;;;;;;;30.19;40.17;91420.47;5051382;28;20029;-65
2022/06/19 07:01:59;;;;;;;1.90;1.58;;;;;;;28.75;42.35;91426.34;5051253;28;20028;-66
2022/06/19 07:04:25;;;;;;;1.90;1.80;;;;;;;28.37;44.44;91413.84;5050811;28;20025;-66
2022/06/19 07:06:50;;;;;;;2.55;1.95;;;;;;;29.35;43.85;91424.84;5051375;28;20098;-66
2022/06/19 07:09:16;;;;;;;3.83;1.88;;;;;;;32.43;38.91;91424.81;5051052;28;20025;-65
2022/06/19 07:11:43;;;;;;;2.00;1.63;;;;;;;29.41;41.95;91419.66;5051074;28;20412;-65
2022/06/19 07:14:09;;;;;;;1.60;1.50;;;;;;;26.14;45.57;91422.88;5044296;28;20025;-68
2022/06/19 07:16:35;;;;;;;1.58;1.45;;;;;;;24.14;48.66;91421.63;5031241;28;20030;-67
2022/06/19 07:19:01;;;;;;;4.03;1.83;;;;;;;27.09;46.33;91421.81;5030743;28;20026;-67
2022/06/19 07:21:27;;;;;;;1.58;1.48;;;;;;;28.86;42.85;91420.72;5030923;28;20037;-67
2022/06/19 07:23:52;;;;;;;1.70;1.60;;;;;;;25.63;47.67;91413.94;5030966;28;20021;-67
2022/06/19 07:26:20;;;;;;;2.85;1.73;;;;;;;29.97;44.88;91420.78;5030505;28;20033;-66
2022/06/19 07:28:49;;;;;;;1.65;1.55;;;;;;;31.00;37.88;91405.22;5030907;28;20043;-66
2022/06/19 07:31:15;;;;;;;1.60;1.50;;;;;;;33.29;37.87;91419.72;5031156;28;20418;-66
2022/06/19 07:33:41;;;;;;;1.52;1.42;;;;;;;34.10;35.75;91418.53;5030326;28;20029;-67
2022/06/19 07:36:10;;;;;;;1.58;1.48;;;;;;;32.43;35.10;91415.75;5030942;28;20100;-66
2022/06/19 07:38:35;;;;;;;1.50;1.40;;;;;;;29.25;40.41;91405.78;5030968;28;20025;-66
2022/06/19 07:41:01;;;;;;;1.88;1.60;;;;;;;30.97;38.26;91417.06;5030972;28;20120;-68
2022/06/19 07:43:27;;;;;;;1.60;1.50;;;;;;;31.08;37.56;91416.81;5030567;28;20561;-68
2022/06/19 07:45:53;;;;;;;1.67;1.58;;;;;;;28.41;39.76;91412.66;5030584;28;20013;-68
2022/06/19 07:51:03;;;;;;;2.25;2.05;;;;;;;26.89;41.68;91414.50;5030912;28;20033;-66
2022/06/19 07:53:28;;;;;;;1.70;1.60;;;;;;;26.51;44.41;91420.50;5030560;28;20025;-66
2022/06/19 07:55:53;;;;;;;3.42;1.88;;;;;;;30.49;40.77;91419.53;5030539;28;20384;-67
2022/06/19 07:58:19;;;;;;;1.48;1.38;;;;;;;32.16;36.94;91427.03;5030476;28;20071;-67
2022/06/19 08:00:44;;;;;;;1.40;1.30;;;;;;;31.28;38.02;91417.63;5030647;28;20052;-68
2022/06/19 08:03:10;;;;;;;2.15;1.70;;;;;;;31.58;38.42;91415.81;5044090;28;20052;-69
2022/06/19 08:05:38;;;;;;;1.52;1.42;;;;;;;31.91;37.85;91429.63;5050274;28;20593;-68
2022/06/19 08:08:07;;;;;;;2.38;1.48;;;;;;;32.58;36.75;91425.22;5050301;28;20033;-68
2022/06/19 08:10:36;;;;;;;1.42;1.33;;;;;;;32.91;35.18;91425.94;5031908;28;20446;-68
2022/06/19 08:13:02;;;;;;;1.60;1.50;;;;;;;32.43;36.43;91418.53;5047272;28;20036;-68
2022/06/19 08:15:30;;;;;;;2.35;1.50;;;;;;;33.42;34.34;91417.81;5049955;28;20021;-69
2022/06/19 08:17:55;;;;;;;2.55;1.65;;;;;;;33.35;34.50;91429.06;5049996;28;20033;-69
2022/06/19 08:20:22;;;;;;;1.38;1.27;;;;;;;32.60;34.73;91419.25;5050370;28;20032;-69
2022/06/19 08:22:47;;;;;;;1.35;1.10;;;;;;;33.47;35.13;91420.03;5050108;28;20036;-70
2022/06/19 08:25:15;;;;;;;1.40;1.23;;;;;;;33.19;34.04;91421.59;5050256;28;20486;-69
2022/06/19 08:27:42;;;;;;;1.42;1.33;;;;;;;34.44;34.22;91415.06;5049925;28;20037;-69
2022/06/19 08:30:14;;;;;;;1.50;1.40;;;;;;;34.61;31.40;91416.44;5050244;28;20112;-70
2022/06/19 08:32:40;;;;;;;2.10;1.00;;;;;;;32.92;29.99;91410.16;5049727;28;20037;-69
2022/06/19 08:35:06;;;;;;;1.27;1.17;;;;;;;34.33;28.72;91420.13;5050083;28;20657;-68
2022/06/19 08:37:33;;;;;;;1.30;1.20;;;;;;;34.86;28.36;91414.81;5052170;28;20060;-69
2022/06/19 08:39:59;;;;;;;1.42;1.10;;;;;;;34.50;27.78;91422.31;5054023;28;20533;-70
2022/06/19 08:42:48;;;;;;;1.10;0.95;;;;;;;33.66;27.83;91421.03;5053357;28;20631;-70
2022/06/19 08:45:47;;;;;;;1.40;1.25;;;;;;;31.62;30.82;91412.97;5051220;28;20513;-71
2022/06/19 08:48:37;;;;;;;1.40;1.30;;;;;;;33.33;29.41;91403.91;5042185;28;20102;-70
2022/06/19 08:51:35;;;;;;;1.20;1.10;;;;;;;31.37;29.58;91403.28;5033821;28;20025;-69
2022/06/19 08:54:10;;;;;;;1.30;0.95;;;;;;;31.15;30.41;91407.66;5033763;28;20396;-69
2022/06/19 08:56:47;;;;;;;2.42;1.17;;;;;;;30.66;34.85;91396.50;5033611;28;20026;-69
2022/06/19 08:59:24;;;;;;;1.30;1.20;;;;;;;32.42;30.72;91406.72;5033696;28;20063;-68
2022/06/19 09:02:13;;;;;;;1.50;1.30;;;;;;;35.31;29.73;91395.78;5033106;28;20094;-68
2022/06/19 09:08:29;;;;;;;4.45;1.52;;;;;;;35.27;27.75;91405.44;5033766;28;20091;-67
2022/06/19 09:11:43;;;;;;;1.20;1.00;;;;;;;32.83;29.95;91405.28;5013102;28;20060;-67
2022/06/19 09:14:47;;;;;;;1.30;1.20;;;;;;;33.14;29.46;91402.03;5015172;28;20499;-69
2022/06/19 09:17:27;;;;;;;0.90;0.90;;;;;;;31.11;30.31;91396.75;4991369;28;20069;-67
2022/06/19 09:20:02;;;;;;;2.63;1.20;;;;;;;31.07;30.79;91398.78;5028984;28;20095;-66
2022/06/19 09:22:43;;;;;;;1.30;1.20;;;;;;;30.71;31.75;91401.47;5033259;28;20033;-66
2022/06/19 09:25:13;;;;;;;1.00;1.00;;;;;;;27.71;37.66;91398.41;5033180;28;20484;-67
2022/06/19 09:27:54;;;;;;;1.52;1.27;;;;;;;30.53;33.85;91396.31;5042998;28;20082;-66
2022/06/19 09:30:27;;;;;;;1.92;1.33;;;;;;;29.93;36.00;91392.63;5048026;28;20062;-66
2022/06/19 09:33:01;;;;;;;1.77;1.10;;;;;;;31.54;31.70;91401.34;5035063;28;20033;-67
2022/06/19 09:35:43;;;;;;;2.08;1.50;;;;;;;31.91;30.88;91410.34;5052923;28;20029;-67
2022/06/19 09:38:26;;;;;;;1.33;1.10;;;;;;;31.70;29.87;91406.84;5034357;28;20043;-67
2022/06/19 09:40:59;;;;;;;2.13;1.10;;;;;;;30.51;31.17;91404.19;5043412;28;20040;-66
2022/06/19 09:43:31;;;;;;;1.08;1.05;;;;;;;30.28;31.25;91402.25;5052485;28;20295;-67
2022/06/19 09:46:03;;;;;;;4.32;1.20;;;;;;;30.86;31.88;91404.72;5047634;28;20036;-66
2022/06/19 09:48:40;;;;;;;1.13;1.03;;;;;;;32.24;30.45;91398.13;5052383;28;20437;-66
2022/06/19 09:51:34;;;;;;;1.35;1.15;;;;;;;34.13;30.08;91398.28;5052731;28;20037;-68
2022/06/19 09:54:34;;;;;;;1.80;1.10;;;;;;;34.07;30.60;91395.31;5052770;28;20028;-68
2022/06/19 09:57:26;;;;;;;1.88;1.77;;;;;;;34.98;30.81;91395.41;5049401;28;20581;-69
2022/06/19 09:59:57;;;;;;;1.15;1.05;;;;;;;35.24;28.94;91396.06;5052449;28;20024;-69
2022/06/19 10:02:30;;;;;;;1.17;0.90;;;;;;;35.01;26.79;91393.75;5052151;28;20033;-67
2022/06/19 10:05:02;;;;;;;;;;;;;;;31.94;28.46;91395.72;5052955;28;20419;-66
2022/06/19 10:07:36;;;;;;;0.73;0.73;;;;;;;31.20;29.14;91387.94;5052453;28;19913;-69
2022/06/19 10:10:18;;;;;;;1.75;1.00;;;;;;;31.78;28.61;91399.25;5052693;28;20465;-66
2022/06/19 10:12:48;;;;;;;1.17;1.10;;;;;;;31.55;29.54;91381.66;5052540;28;20580;-68
2022/06/19 10:15:29;;;;;;;0.88;0.88;;;;;;;33.13;26.64;91386.72;5052702;28;20076;-67
2022/06/19 10:18:05;;;;;;;0.90;0.90;;;;;;;32.69;27.22;91381.63;5052463;28;20532;-68
2022/06/19 10:20:46;;;;;;;0.90;0.90;;;;;;;31.35;27.83;91380.94;5052497;28;20028;-68
2022/06/19 10:23:20;;;;;;;1.00;0.90;;;;;;;31.10;28.74;91381.47;5052332;28;20021;-67
2022/06/19 10:25:45;;;;;;;1.30;1.20;;;;;;;31.81;29.75;91382.66;5052156;28;20055;-66
2022/06/19 10:28:19;;;;;;;1.25;1.15;;;;;;;31.64;32.81;91389.31;5052422;28;20029;-66
2022/06/19 10:31:32;;;;;;;1.98;1.60;;;;;;;31.62;30.08;91390.97;5052288;28;20041;-69
2022/06/19 10:34:08;;;;;;;1.10;1.00;;;;;;;32.50;30.58;91377.00;4990690;28;20423;-67
2022/06/19 10:37:01;;;;;;;1.48;1.35;;;;;;;32.26;28.85;91375.66;4990710;28;20117;-68
2022/06/19 10:39:41;;;;;;;1.13;1.02;;;;;;;32.14;28.75;91372.41;5038648;28;20041;-68
2022/06/19 10:42:36;;;;;;;1.30;1.10;;;;;;;32.16;27.78;91363.72;5051854;28;20024;-66
2022/06/19 10:45:29;;;;;;;1.08;1.00;;;;;;;32.82;27.52;91369.88;5031759;28;20045;-66
2022/06/19 10:47:59;;;;;;;1.85;1.40;;;;;;;32.18;31.57;91361.28;5032067;28;20415;-67
2022/06/19 10:50:39;;;;;;;1.83;1.08;;;;;;;33.55;26.88;91360.66;5031838;28;20040;-66
2022/06/19 10:53:24;;;;;;;1.17;1.05;;;;;;;32.62;27.67;91361.75;5031767;28;20501;-68
2022/06/19 10:56:00;;;;;;;0.93;0.90;;;;;;;31.51;27.82;91361.72;5031761;28;20384;-67
2022/06/19 10:58:30;;;;;;;7.63;5.03;;;;;;;30.38;29.39;91364.81;5032029;28;20041;-67
2022/06/19 11:01:04;;;;;;;2.17;1.60;;;;;;;31.62;29.20;91357.94;5030848;28;20477;-68
2022/06/19 11:06:30;;;;;;;1.10;1.00;;;;;;;30.46;29.86;91344.28;5031540;28;20454;-68
2022/06/19 11:09:07;;;;;;;2.15;1.45;;;;;;;30.59;31.80;91350.66;5031612;28;20120;-69
2022/06/19 11:11:36;;;;;;;3.08;1.90;;;;;;;31.07;30.78;91356.78;5031339;28;20077;-68
2022/06/19 11:14:07;;;;;;;1.38;1.27;;;;;;;32.97;27.90;91352.50;5031495;28;20103;-66
2022/06/19 11:16:50;;;;;;;0.90;0.90;;;;;;;33.26;27.30;91359.94;5031397;28;20065;-68
2022/06/19 11:19:32;;;;;;;1.20;1.10;;;;;;;32.57;31.21;91354.78;5031509;28;20098;-68
2022/06/19 11:21:58;;;;;;;1.20;1.10;;;;;;;31.82;33.03;91342.94;5031710;28;20045;-68
2022/06/19 11:24:29;;;;;;;1.10;1.00;;;;;;;31.58;32.55;91347.81;5031491;28;20083;-68
2022/06/19 11:26:56;;;;;;;1.10;1.00;;;;;;;32.03;31.09;91343.59;5031364;28;20049;-68
2022/06/19 11:29:25;;;;;;;1.20;1.10;;;;;;;32.02;31.32;91339.28;5031533;28;20069;-69
2022/06/19 11:32:12;;;;;;;1.10;1.00;;;;;;;32.88;30.28;91335.06;5031210;28;20053;-69
2022/06/19 11:34:44;;;;;;;0.90;0.90;;;;;;;31.31;31.59;91335.50;5031105;28;20038;-65
2022/06/19 11:37:23;;;;;;;1.25;0.90;;;;;;;32.28;31.23;91321.72;5031386;28;20045;-66
2022/06/19 11:39:54;;;;;;;1.13;1.02;;;;;;;31.81;31.31;91333.13;5031164;28;20125;-66
2022/06/19 11:42:31;;;;;;;1.08;0.98;;;;;;;32.17;31.81;91332.22;5031465;28;20533;-65
2022/06/19 11:45:03;;;;;;;1.00;0.95;;;;;;;31.83;30.83;91325.22;5050964;28;20072;-68
2022/06/19 11:47:39;;;;;;;0.90;0.90;;;;;;;32.82;29.75;91317.50;5051204;28;20581;-67
2022/06/19 11:50:13;;;;;;;1.10;1.00;;;;;;;32.99;31.66;91307.97;5051342;28;20154;-66
2022/06/19 11:52:54;;;;;;;1.30;1.20;;;;;;;32.74;31.31;91305.91;5051075;28;20029;-68
2022/06/19 11:55:22;;;;;;;1.27;1.17;;;;;;;32.68;30.00;91304.91;5051003;28;20055;-68